Time;durP1;ratioP1;P1;durP2;ratioP2;P2;SDS_P1;SDS_P2;PMS_P1;PMS_P2;Temp;Humidity;BMP_temperature;BMP_pressure;BME280_temperature;BME280_humidity;BME280_pressure;Samples;Min_cycle;Max_cycle;Signal;HPM_P1;HPM_P2
2023/05/08 04:01:01;;;;;;;1.92;1.83;;;8.10;99.90;;;;;;5787322;23;20315;-75
2023/05/08 04:03:39;;;;;;;1.85;1.65;;;8.10;99.90;;;;;;4995098;28;20200;-75
2023/05/08 04:06:10;;;;;;;2.65;2.55;;;8.00;99.90;;;;;;4995262;28;20211;-75
2023/05/08 04:08:44;;;;;;;2.42;2.33;;;8.00;99.90;;;;;;4994793;28;20211;-74
2023/05/08 04:11:20;;;;;;;2.25;1.70;;;8.00;99.90;;;;;;4994140;28;20238;-75
2023/05/08 04:13:57;;;;;;;1.88;1.83;;;8.00;99.90;;;;;;5011845;23;20792;-75
2023/05/08 04:16:27;;;;;;;1.15;1.15;;;8.00;99.90;;;;;;5012428;28;20302;-75
2023/05/08 04:19:01;;;;;;;3.60;1.80;;;8.10;99.90;;;;;;5011571;28;20261;-73
2023/05/08 04:21:33;;;;;;;2.28;2.10;;;8.10;99.90;;;;;;5011803;28;20214;-73
2023/05/08 04:24:03;;;;;;;2.75;2.55;;;8.10;99.90;;;;;;5011892;28;20231;-73
2023/05/08 04:26:31;;;;;;;2.88;2.78;;;8.10;99.90;;;;;;5012177;28;20211;-73
2023/05/08 04:28:58;;;;;;;2.13;2.03;;;8.10;99.90;;;;;;5012404;28;20211;-73
2023/05/08 04:31:28;;;;;;;6.65;3.25;;;8.10;99.90;;;;;;5012030;28;20230;-73
2023/05/08 04:33:55;;;;;;;1.73;1.73;;;8.30;99.90;;;;;;5012011;28;20234;-73
2023/05/08 04:36:22;;;;;;;2.70;2.60;;;8.90;99.90;;;;;;5011504;28;20207;-73
2023/05/08 04:38:49;;;;;;;2.90;2.70;;;9.50;99.90;;;;;;5012416;28;20211;-73
2023/05/08 04:41:15;;;;;;;3.40;3.30;;;10.10;99.90;;;;;;5005980;28;20207;-73
2023/05/08 04:43:42;;;;;;;2.97;2.87;;;10.70;99.90;;;;;;5011663;28;20292;-73
2023/05/08 04:46:09;;;;;;;2.27;2.17;;;11.20;99.90;;;;;;5011616;28;20466;-73
2023/05/08 04:48:37;;;;;;;2.07;2.07;;;11.50;99.90;;;;;;5012095;28;20512;-74
2023/05/08 04:51:05;;;;;;;2.07;1.97;;;11.80;99.90;;;;;;5010916;28;20466;-71
2023/05/08 04:53:31;;;;;;;2.27;2.17;;;12.00;99.90;;;;;;5011549;28;20489;-72
2023/05/08 04:55:58;;;;;;;2.23;2.13;;;11.90;99.90;;;;;;5011846;28;20461;-73
2023/05/08 04:58:25;;;;;;;2.90;2.70;;;11.80;99.90;;;;;;5012121;28;20466;-73
2023/05/08 05:00:51;;;;;;;2.23;2.17;;;11.90;99.90;;;;;;5011872;28;20470;-74
2023/05/08 05:03:18;;;;;;;3.50;2.23;;;12.10;99.90;;;;;;5012206;28;20536;-72
2023/05/08 05:05:46;;;;;;;2.93;2.83;;;12.00;99.90;;;;;;5011898;28;20946;-72
2023/05/08 05:08:13;;;;;;;1.20;1.20;;;11.70;99.90;;;;;;5011714;28;20476;-73
2023/05/08 05:10:40;;;;;;;2.08;1.98;;;11.20;99.90;;;;;;5011708;28;20489;-74
2023/05/08 05:13:06;;;;;;;0.90;0.90;;;10.90;99.90;;;;;;5011845;28;20227;-72
2023/05/08 05:15:33;;;;;;;3.33;3.13;;;10.60;99.90;;;;;;5010576;28;20239;-72
2023/05/08 05:18:00;;;;;;;2.03;1.92;;;10.40;99.90;;;;;;5011217;28;20655;-72
2023/05/08 05:20:27;;;;;;;14.13;2.30;;;10.20;99.90;;;;;;5010813;28;20609;-73
2023/05/08 05:22:56;;;;;;;1.00;1.00;;;10.00;99.90;;;;;;5010565;28;20209;-73
2023/05/08 05:25:23;;;;;;;2.85;2.33;;;9.80;99.90;;;;;;5010535;28;20234;-73
2023/05/08 05:27:49;;;;;;;1.77;1.67;;;9.70;99.90;;;;;;5010844;28;20211;-73
2023/05/08 05:30:16;;;;;;;3.95;3.15;;;9.70;99.90;;;;;;5010812;28;20575;-73
2023/05/08 05:32:43;;;;;;;2.75;2.17;;;9.60;99.90;;;;;;5011095;28;20250;-73
2023/05/08 05:35:10;;;;;;;3.58;1.75;;;9.50;99.90;;;;;;5009953;28;20227;-72
2023/05/08 05:37:37;;;;;;;1.88;1.67;;;9.50;99.90;;;;;;5010802;28;20203;-73
2023/05/08 05:40:07;;;;;;;1.60;1.38;;;9.50;99.90;;;;;;5010883;28;20256;-73
2023/05/08 05:42:33;;;;;;;1.27;1.27;;;9.50;99.90;;;;;;5011146;28;20199;-73
2023/05/08 05:45:00;;;;;;;2.33;2.33;;;9.50;99.90;;;;;;5010789;28;20322;-73
2023/05/08 05:47:27;;;;;;;2.97;2.78;;;9.60;99.90;;;;;;5011114;28;20215;-72
2023/05/08 05:49:54;;;;;;;2.25;2.15;;;9.60;99.90;;;;;;5010644;28;20215;-73
2023/05/08 05:52:21;;;;;;;1.65;1.65;;;9.60;99.90;;;;;;5010754;28;20325;-73
2023/05/08 05:54:47;;;;;;;1.35;1.02;;;9.60;99.90;;;;;;5010206;28;20589;-72
2023/05/08 05:57:16;;;;;;;3.92;3.45;;;9.60;99.90;;;;;;5010907;28;20587;-72
2023/05/08 05:59:43;;;;;;;2.33;2.25;;;9.70;99.90;;;;;;5010934;28;20282;-73
2023/05/08 06:02:13;;;;;;;1.95;1.85;;;9.90;99.90;;;;;;5010812;28;20660;-73
2023/05/08 06:04:39;;;;;;;2.92;2.13;;;10.40;99.90;;;;;;5010521;28;20342;-73
2023/05/08 06:07:06;;;;;;;3.40;3.10;;;10.90;99.90;;;;;;5010563;28;20210;-73
2023/05/08 06:09:33;;;;;;;2.90;2.73;;;11.60;99.90;;;;;;5010960;28;20280;-73
2023/05/08 06:11:59;;;;;;;2.27;2.27;;;12.30;99.90;;;;;;5010964;28;20477;-73
2023/05/08 06:14:27;;;;;;;1.90;1.80;;;12.90;99.90;;;;;;5009909;28;20497;-74
2023/05/08 06:16:54;;;;;;;1.80;1.70;;;13.50;99.90;;;;;;5010714;28;20462;-73
2023/05/08 06:19:23;;;;;;;2.30;2.10;;;13.30;99.90;;;;;;5010175;28;20466;-73
2023/05/08 06:21:51;;;;;;;2.90;2.80;;;13.20;99.90;;;;;;5010048;28;20462;-73
2023/05/08 06:24:18;;;;;;;2.63;2.53;;;13.10;99.90;;;;;;5010259;28;20569;-73
2023/05/08 06:26:45;;;;;;;1.87;1.83;;;13.40;99.90;;;;;;5010729;28;20480;-73
2023/05/08 06:29:12;;;;;;;3.20;2.80;;;14.10;99.90;;;;;;5010716;28;20508;-74
2023/05/08 06:31:40;;;;;;;1.87;1.80;;;14.70;99.90;;;;;;5010612;28;20512;-74
2023/05/08 06:34:06;;;;;;;2.27;2.17;;;15.30;99.90;;;;;;5009988;28;20489;-74
2023/05/08 06:36:33;;;;;;;2.73;2.63;;;15.20;99.90;;;;;;5009328;28;20524;-73
2023/05/08 06:39:00;;;;;;;2.30;2.30;;;15.50;99.90;;;;;;5010538;28;20788;-74
2023/05/08 06:41:26;;;;;;;3.00;2.90;;;15.20;99.90;;;;;;5010224;28;20476;-74
2023/05/08 06:43:53;;;;;;;2.20;2.10;;;14.90;99.90;;;;;;5013015;28;20481;-74
2023/05/08 06:46:20;;;;;;;3.40;3.20;;;15.00;99.90;;;;;;5014055;28;20470;-73
2023/05/08 06:48:48;;;;;;;2.20;2.10;;;14.80;99.90;;;;;;5014230;28;20462;-74
2023/05/08 06:51:15;;;;;;;2.60;2.40;;;14.70;99.90;;;;;;5013255;28;20648;-73
2023/05/08 06:53:41;;;;;;;4.10;3.70;;;14.80;99.90;;;;;;5013989;28;20493;-74
2023/05/08 06:56:08;;;;;;;3.17;2.97;;;15.00;99.90;;;;;;5013798;28;20505;-73
2023/05/08 06:58:35;;;;;;;2.50;2.40;;;15.20;99.90;;;;;;5014028;28;20462;-73
2023/05/08 07:01:02;;;;;;;1.70;1.70;;;15.20;99.90;;;;;;5013666;28;20938;-73
2023/05/08 07:03:28;;;;;;;3.50;3.27;;;15.30;99.90;;;;;;5013224;28;20580;-74
2023/05/08 07:05:56;;;;;;;2.13;2.03;;;15.80;99.90;;;;;;5013142;28;20785;-74
2023/05/08 07:08:23;;;;;;;2.53;2.23;;;15.40;99.90;;;;;;5014036;28;20461;-74
2023/05/08 07:10:50;;;;;;;1.67;1.67;;;15.70;99.90;;;;;;5013705;28;20473;-74
2023/05/08 07:13:20;;;;;;;2.73;2.57;;;16.00;99.90;;;;;;5013174;28;20485;-74
2023/05/08 07:15:47;;;;;;;1.97;1.90;;;16.10;99.90;;;;;;5013469;28;20464;-74
2023/05/08 07:18:14;;;;;;;1.67;1.57;;;16.30;99.90;;;;;;5013566;28;20470;-74
2023/05/08 07:20:40;;;;;;;2.33;2.33;;;16.40;99.90;;;;;;5012681;28;20545;-74
2023/05/08 07:23:08;;;;;;;3.13;3.03;;;16.30;99.90;;;;;;5013637;28;20866;-74
2023/05/08 07:25:35;;;;;;;3.93;3.00;;;16.50;99.90;;;;;;5012959;28;20464;-74
2023/05/08 07:28:02;;;;;;;2.33;2.23;;;16.40;99.90;;;;;;5013665;28;20458;-74
2023/05/08 07:30:29;;;;;;;2.57;2.27;;;16.40;99.90;;;;;;5013192;28;20465;-74
2023/05/08 07:32:55;;;;;;;2.80;2.70;;;16.30;99.90;;;;;;5013491;28;20852;-74
2023/05/08 07:35:22;;;;;;;3.80;3.13;;;16.20;99.90;;;;;;5012438;28;20493;-74
2023/05/08 07:37:49;;;;;;;2.50;2.40;;;16.40;99.90;;;;;;5012879;28;20477;-74
2023/05/08 07:40:18;;;;;;;3.30;3.20;;;16.30;99.90;;;;;;5013440;28;20904;-74
2023/05/08 07:42:45;;;;;;;2.97;2.77;;;16.00;99.90;;;;;;5013341;28;20545;-74
2023/05/08 07:45:13;;;;;;;3.90;2.43;;;15.40;99.90;;;;;;5012271;28;20990;-73
2023/05/08 07:47:48;;;;;;;2.27;2.17;;;14.90;99.90;;;;;;5013254;28;20473;-74
2023/05/08 07:50:15;;;;;;;2.50;2.30;;;14.50;99.90;;;;;;5013191;28;20470;-74
2023/05/08 07:52:42;;;;;;;3.20;3.00;;;14.40;99.90;;;;;;5012567;28;20553;-73
2023/05/08 07:55:09;;;;;;;1.53;1.47;;;14.50;99.90;;;;;;5012234;28;20557;-73
2023/05/08 07:57:38;;;;;;;2.53;2.40;;;14.50;99.90;;;;;;5012944;28;20465;-74
2023/05/08 08:00:06;;;;;;;2.00;1.87;;;14.30;99.90;;;;;;5013499;28;20462;-73
2023/05/08 08:02:32;;;;;;;2.53;2.43;;;14.20;99.90;;;;;;5012903;28;20546;-73
2023/05/08 08:04:59;;;;;;;2.10;1.93;;;14.20;99.90;;;;;;5011770;28;20482;-73
2023/05/08 08:07:26;;;;;;;2.50;2.40;;;14.30;99.90;;;;;;5012258;28;20477;-73
2023/05/08 08:09:52;;;;;;;3.27;2.90;;;14.40;99.90;;;;;;5012654;28;20831;-73
2023/05/08 08:12:19;;;;;;;3.37;3.07;;;14.50;99.90;;;;;;5012423;28;20461;-73
2023/05/08 08:14:47;;;;;;;5.63;1.77;;;14.50;99.90;;;;;;5011905;28;20897;-74
2023/05/08 08:17:14;;;;;;;4.20;3.00;;;14.60;99.90;;;;;;5012716;28;20461;-73
2023/05/08 08:19:40;;;;;;;2.30;2.20;;;14.60;99.90;;;;;;5012186;28;20474;-74
2023/05/08 08:22:07;;;;;;;2.97;2.77;;;14.40;99.90;;;;;;5012103;28;20548;-73
2023/05/08 08:24:34;;;;;;;2.53;2.40;;;14.30;99.90;;;;;;5011990;28;20583;-73
2023/05/08 08:27:01;;;;;;;3.27;3.07;;;14.40;99.90;;;;;;5012279;28;20524;-74
2023/05/08 08:29:27;;;;;;;3.37;3.27;;;14.40;99.90;;;;;;5012310;28;20994;-74
2023/05/08 08:31:56;;;;;;;3.37;3.07;;;14.60;99.90;;;;;;5012597;28;20519;-74
2023/05/08 08:34:22;;;;;;;2.63;2.00;;;14.50;99.90;;;;;;5011570;28;20510;-74
2023/05/08 08:36:49;;;;;;;2.40;2.30;;;14.50;99.90;;;;;;5011968;28;20462;-74
2023/05/08 08:39:16;;;;;;;3.07;2.67;;;14.50;99.90;;;;;;5011909;28;20466;-74
2023/05/08 08:41:43;;;;;;;4.90;2.67;;;14.50;99.90;;;;;;5011939;28;20457;-74
2023/05/08 08:44:09;;;;;;;2.53;2.33;;;14.60;99.90;;;;;;5011522;28;20474;-74
2023/05/08 08:46:43;;;;;;;2.40;2.17;;;14.70;99.90;;;;;;5011993;28;20469;-74
2023/05/08 08:49:17;;;;;;;3.77;2.30;;;14.90;99.90;;;;;;5012386;28;20461;-73
2023/05/08 08:51:50;;;;;;;4.23;3.93;;;14.80;99.90;;;;;;5011522;28;20490;-74
2023/05/08 08:54:20;;;;;;;2.60;2.40;;;14.80;99.90;;;;;;5010140;28;20930;-73
2023/05/08 08:56:50;;;;;;;2.53;2.43;;;14.80;99.90;;;;;;5011741;28;20549;-74
2023/05/08 08:59:18;;;;;;;1.20;1.20;;;14.90;99.90;;;;;;5011664;28;20819;-74
2023/05/08 09:01:50;;;;;;;6.43;3.80;;;14.90;99.90;;;;;;5011485;28;20540;-73
2023/05/08 09:04:18;;;;;;;1.60;1.50;;;14.90;99.90;;;;;;5011016;28;20518;-74
2023/05/08 09:06:45;;;;;;;3.07;2.87;;;14.80;99.90;;;;;;5011107;28;20501;-74
2023/05/08 09:09:12;;;;;;;2.83;2.70;;;14.90;99.90;;;;;;5011875;28;20808;-73
2023/05/08 09:11:40;;;;;;;2.13;2.10;;;15.00;99.90;;;;;;5011641;28;20967;-74
2023/05/08 09:14:08;;;;;;;1.67;1.67;;;15.10;99.90;;;;;;5010827;28;21097;-73
2023/05/08 09:16:35;;;;;;;2.53;2.33;;;15.20;99.90;;;;;;5011364;28;20905;-73
2023/05/08 09:19:02;;;;;;;2.40;2.20;;;15.40;99.90;;;;;;5011596;28;20523;-73
2023/05/08 09:21:30;;;;;;;2.10;2.00;;;15.50;99.90;;;;;;5010962;28;20461;-73
2023/05/08 09:23:58;;;;;;;3.50;3.27;;;15.60;99.90;;;;;;5011039;28;20837;-73
2023/05/08 09:26:31;;;;;;;3.63;2.67;;;15.70;99.90;;;;;;5011168;28;20469;-73
2023/05/08 09:29:15;;;;;;;1.90;1.80;;;15.70;99.90;;;;;;5011303;28;20462;-74
2023/05/08 09:31:42;;;;;;;2.30;2.20;;;15.70;99.90;;;;;;5011678;28;20465;-74
2023/05/08 09:34:11;;;;;;;2.67;2.57;;;15.80;99.90;;;;;;5010974;28;20540;-74
2023/05/08 09:36:40;;;;;;;4.80;3.70;;;15.80;99.90;;;;;;5010380;28;20466;-73
2023/05/08 09:39:11;;;;;;;3.20;2.60;;;15.90;99.90;;;;;;5011156;28;20458;-73
2023/05/08 09:41:38;;;;;;;3.47;2.40;;;16.00;99.90;;;;;;5005825;28;20501;-73
2023/05/08 09:44:06;;;;;;;3.50;3.30;;;15.90;99.90;;;;;;5010232;28;21017;-73
2023/05/08 09:46:34;;;;;;;2.57;2.47;;;15.90;99.90;;;;;;5010977;28;20547;-73
2023/05/08 09:49:03;;;;;;;4.63;3.00;;;16.10;99.90;;;;;;5010947;28;21041;-73
2023/05/08 09:51:31;;;;;;;2.53;2.33;;;16.20;99.90;;;;;;5010291;28;20466;-73
2023/05/08 09:54:02;;;;;;;3.13;2.93;;;16.20;99.90;;;;;;5010531;28;20486;-73
2023/05/08 09:56:31;;;;;;;2.80;2.37;;;16.20;99.90;;;;;;5010967;28;20557;-73
2023/05/08 09:58:57;;;;;;;2.30;2.20;;;16.40;99.90;;;;;;5011268;28;20501;-73
2023/05/08 10:01:29;;;;;;;1.90;1.80;;;16.40;99.90;;;;;;5010940;28;20469;-73
2023/05/08 10:03:57;;;;;;;1.70;1.60;;;16.50;99.90;;;;;;5010228;28;20505;-74
2023/05/08 10:06:25;;;;;;;2.83;2.73;;;16.50;99.90;;;;;;5009846;28;20466;-73
2023/05/08 10:11:54;;;;;;;0.60;0.60;;;16.60;99.90;;;;;;5129054;27;20545;-73
2023/05/08 10:14:21;;;;;;;2.07;1.87;;;16.60;99.90;;;;;;5115167;22;20607;-75
2023/05/08 10:16:50;;;;;;;1.13;1.10;;;16.70;99.90;;;;;;5048005;28;20460;-74
2023/05/08 10:19:18;;;;;;;1.70;1.70;;;16.70;99.90;;;;;;5047782;28;20461;-74
2023/05/08 10:21:48;;;;;;;1.10;1.10;;;16.70;99.90;;;;;;5047967;28;20463;-74
2023/05/08 10:24:17;;;;;;;1.57;1.57;;;16.70;99.90;;;;;;5047318;28;20483;-73
2023/05/08 10:26:53;;;;;;;2.57;2.53;;;16.80;99.90;;;;;;5048072;28;20467;-75
2023/05/08 10:29:27;;;;;;;1.50;1.50;;;16.90;99.90;;;;;;5048321;28;20486;-75
2023/05/08 10:31:58;;;;;;;2.20;2.10;;;16.90;99.90;;;;;;5047516;28;20451;-75
2023/05/08 10:34:27;;;;;;;2.33;2.23;;;17.10;99.90;;;;;;5046880;28;20872;-74
2023/05/08 10:36:54;;;;;;;2.23;2.07;;;17.20;99.90;;;;;;5047295;28;20582;-75
2023/05/08 10:39:22;;;;;;;1.70;1.60;;;17.20;99.90;;;;;;5047825;28;20794;-75
2023/05/08 10:41:50;;;;;;;2.70;2.60;;;17.20;99.90;;;;;;5063581;28;20524;-75
2023/05/08 10:44:18;;;;;;;1.80;1.70;;;17.00;99.90;;;;;;5027364;28;20523;-74
2023/05/08 10:46:52;;;;;;;1.93;1.83;;;17.00;99.90;;;;;;5027737;28;20524;-74
2023/05/08 10:49:30;;;;;;;1.27;1.17;;;16.90;99.90;;;;;;5027390;28;20469;-74
2023/05/08 10:52:08;;;;;;;0.80;0.80;;;16.90;99.90;;;;;;5027572;28;20456;-74
2023/05/08 10:54:47;;;;;;;1.77;1.77;;;16.90;99.90;;;;;;5027037;28;20513;-76
2023/05/08 10:57:15;;;;;;;1.57;1.47;;;17.00;99.90;;;;;;5028350;28;20457;-74
2023/05/08 10:59:46;;;;;;;1.10;1.10;;;17.00;99.90;;;;;;5027798;28;20831;-76
2023/05/08 11:02:13;;;;;;;1.67;1.67;;;17.10;99.90;;;;;;5027207;28;20464;-76
2023/05/08 11:04:40;;;;;;;2.50;2.30;;;17.30;99.90;;;;;;5026494;28;20477;-76
2023/05/08 11:07:07;;;;;;;1.40;1.40;;;17.50;99.90;;;;;;5026531;28;20958;-76
2023/05/08 11:09:46;;;;;;;0.97;0.97;;;17.70;99.90;;;;;;5026829;28;20974;-76
2023/05/08 11:12:25;;;;;;;1.80;1.70;;;17.80;99.90;;;;;;5026752;28;20469;-76
2023/05/08 11:14:59;;;;;;;1.43;1.43;;;17.80;99.90;;;;;;5026254;28;20492;-75
2023/05/08 11:17:26;;;;;;;1.67;1.57;;;18.00;99.90;;;;;;5027070;28;20465;-75
2023/05/08 11:19:58;;;;;;;1.37;1.37;;;18.10;99.60;;;;;;5026383;28;20619;-75
2023/05/08 11:22:27;;;;;;;1.17;1.17;;;18.10;98.80;;;;;;5016891;28;20489;-76
2023/05/08 11:25:05;;;;;;;1.93;1.83;;;18.20;98.10;;;;;;5013600;28;20481;-76
2023/05/08 11:28:04;;;;;;;1.50;1.40;;;18.20;98.70;;;;;;5013598;28;20510;-76
2023/05/08 11:30:37;;;;;;;1.20;1.20;;;18.40;98.10;;;;;;5006881;28;20489;-76
2023/05/08 11:33:14;;;;;;;1.47;1.47;;;18.40;97.80;;;;;;5013663;28;20469;-76
2023/05/08 11:35:47;;;;;;;1.17;1.17;;;18.50;98.60;;;;;;5013416;28;20485;-75
2023/05/08 11:38:22;;;;;;;1.13;1.13;;;18.70;98.20;;;;;;5014368;28;20466;-76
2023/05/08 11:40:59;;;;;;;0.90;0.90;;;18.70;97.70;;;;;;5028592;28;20470;-74
2023/05/08 11:44:13;;;;;;;0.83;0.83;;;18.70;97.80;;;;;;5039404;28;20465;-74
2023/05/08 11:46:43;;;;;;;1.23;1.03;;;18.60;97.10;;;;;;5054089;28;20460;-74
2023/05/08 11:49:12;;;;;;;1.13;1.07;;;18.40;97.00;;;;;;5055099;28;20494;-76
2023/05/08 11:51:43;;;;;;;2.43;2.33;;;18.30;97.00;;;;;;5054797;28;20545;-75
2023/05/08 11:54:11;;;;;;;1.03;1.03;;;18.40;97.30;;;;;;5054757;28;20491;-75
2023/05/08 11:56:39;;;;;;;2.37;1.30;;;18.30;96.90;;;;;;5056583;28;20475;-75
2023/05/08 11:59:07;;;;;;;1.10;1.10;;;18.50;96.90;;;;;;5058478;28;20467;-75
2023/05/08 12:01:34;;;;;;;1.47;1.37;;;18.60;97.00;;;;;;5057293;28;20871;-75
2023/05/08 12:04:04;;;;;;;0.70;0.70;;;18.80;96.80;;;;;;5058896;28;20575;-75
2023/05/08 12:06:32;;;;;;;1.10;1.10;;;18.70;96.60;;;;;;5056369;28;20964;-75
2023/05/08 12:08:59;;;;;;;1.20;1.20;;;18.60;97.10;;;;;;5056943;28;20459;-75
2023/05/08 12:11:26;;;;;;;1.43;1.33;;;18.60;97.40;;;;;;5054105;28;20495;-75
2023/05/08 12:13:54;;;;;;;1.70;1.60;;;18.60;96.90;;;;;;5053359;28;20522;-75
2023/05/08 12:16:22;;;;;;;0.90;0.90;;;18.60;96.70;;;;;;5053639;28;20460;-75
2023/05/08 12:18:50;;;;;;;4.33;2.90;;;18.40;95.80;;;;;;5053295;28;20483;-74
2023/05/08 12:21:18;;;;;;;1.53;1.53;;;18.30;96.00;;;;;;5052086;28;20681;-75
2023/05/08 12:23:45;;;;;;;2.83;2.60;;;18.30;96.00;;;;;;5052187;28;20964;-75
2023/05/08 12:26:12;;;;;;;0.70;0.70;;;18.30;96.30;;;;;;5052884;28;20472;-74
2023/05/08 12:28:39;;;;;;;1.17;1.17;;;18.30;95.70;;;;;;5052999;28;20518;-75
2023/05/08 12:31:06;;;;;;;1.37;1.27;;;18.20;95.80;;;;;;5053476;28;20515;-75
2023/05/08 12:33:34;;;;;;;1.10;1.10;;;18.10;96.30;;;;;;5051711;28;20469;-75
2023/05/08 12:36:01;;;;;;;1.63;1.63;;;18.10;96.40;;;;;;5052480;28;20467;-74
2023/05/08 12:38:29;;;;;;;1.20;1.20;;;18.20;96.30;;;;;;5052330;28;20492;-74
2023/05/08 12:40:56;;;;;;;1.40;1.40;;;18.10;96.30;;;;;;5037156;28;20457;-74
2023/05/08 12:43:31;;;;;;;1.23;1.23;;;18.10;95.50;;;;;;5044057;28;20463;-75
2023/05/08 12:45:58;;;;;;;0.60;0.50;;;18.00;95.90;;;;;;5051989;28;20471;-74
2023/05/08 12:48:26;;;;;;;2.03;1.93;;;18.00;95.90;;;;;;5051917;28;20475;-74
2023/05/08 12:50:53;;;;;;;0.80;0.80;;;17.90;95.90;;;;;;5051006;28;20618;-75
2023/05/08 12:53:21;;;;;;;1.27;1.27;;;17.90;96.10;;;;;;5051293;28;20460;-75
2023/05/08 12:55:53;;;;;;;1.50;1.40;;;18.00;95.90;;;;;;5051720;28;20924;-73
2023/05/08 12:58:24;;;;;;;1.47;1.37;;;18.20;96.00;;;;;;5052267;28;20614;-73
2023/05/08 13:00:53;;;;;;;1.50;1.13;;;18.50;95.90;;;;;;5052099;28;20882;-72
2023/05/08 13:03:25;;;;;;;0.50;0.50;;;18.70;95.10;;;;;;5051040;28;20526;-72
2023/05/08 13:05:52;;;;;;;0.90;0.90;;;18.80;95.10;;;;;;5050459;28;20468;-73
2023/05/08 13:08:19;;;;;;;4.57;2.20;;;19.00;95.10;;;;;;5051401;28;20971;-74
2023/05/08 13:10:48;;;;;;;0.90;0.90;;;19.20;94.60;;;;;;5051483;28;20484;-74
2023/05/08 13:13:18;;;;;;;0.60;0.60;;;19.30;94.40;;;;;;5051231;28;20464;-73
2023/05/08 13:15:45;;;;;;;2.00;1.90;;;19.30;94.20;;;;;;5051003;28;20495;-73
2023/05/08 13:18:13;;;;;;;1.10;1.10;;;19.30;94.30;;;;;;5051371;28;20868;-73
2023/05/08 13:20:39;;;;;;;0.90;0.90;;;19.40;94.40;;;;;;5050289;28;20829;-73
2023/05/08 13:23:07;;;;;;;0.80;0.80;;;19.50;94.00;;;;;;5051425;28;20456;-73
2023/05/08 13:25:35;;;;;;;1.33;1.33;;;19.60;93.40;;;;;;5050897;28;20488;-74
2023/05/08 13:28:02;;;;;;;1.20;1.20;;;19.60;93.50;;;;;;5051431;28;20929;-73
2023/05/08 13:30:30;;;;;;;1.07;1.07;;;19.60;93.10;;;;;;5051439;28;20831;-74
2023/05/08 13:32:57;;;;;;;1.30;1.20;;;19.50;92.90;;;;;;5051440;28;20967;-74
2023/05/08 13:35:24;;;;;;;1.13;1.13;;;19.60;93.30;;;;;;5050493;28;20483;-73
2023/05/08 13:37:51;;;;;;;0.60;0.60;;;19.80;92.70;;;;;;5050731;28;20519;-73
2023/05/08 13:40:18;;;;;;;0.90;0.90;;;19.80;92.10;;;;;;5039174;28;20464;-74
2023/05/08 13:42:45;;;;;;;0.93;0.93;;;19.80;92.20;;;;;;5043464;28;20460;-73
2023/05/08 13:45:13;;;;;;;0.77;0.77;;;19.80;92.30;;;;;;5030092;28;20480;-73
2023/05/08 13:47:41;;;;;;;1.40;1.40;;;19.80;92.40;;;;;;5030670;28;20514;-73
2023/05/08 13:50:09;;;;;;;1.27;0.80;;;19.90;92.60;;;;;;5030768;28;20881;-73
2023/05/08 13:52:36;;;;;;;1.47;1.47;;;19.90;91.60;;;;;;5030349;28;21044;-73
2023/05/08 13:55:04;;;;;;;0.90;0.90;;;19.80;91.10;;;;;;5030302;28;20481;-73
2023/05/08 13:57:31;;;;;;;1.23;0.50;;;19.80;91.40;;;;;;5030503;28;20813;-74
2023/05/08 13:59:57;;;;;;;0.70;0.70;;;19.80;91.20;;;;;;5030773;28;20480;-73
2023/05/08 14:02:24;;;;;;;2.20;1.40;;;19.70;90.80;;;;;;5030493;28;20457;-73
2023/05/08 14:04:52;;;;;;;0.70;0.70;;;19.80;91.20;;;;;;5029839;28;20879;-74
2023/05/08 14:07:19;;;;;;;1.10;1.10;;;19.80;90.20;;;;;;5030067;28;20836;-73
2023/05/08 14:09:46;;;;;;;1.00;1.00;;;19.80;90.40;;;;;;5030633;28;20840;-73
2023/05/08 14:12:13;;;;;;;0.27;0.27;;;19.90;89.80;;;;;;5030476;28;20526;-74
2023/05/08 14:14:40;;;;;;;0.67;0.67;;;19.90;88.80;;;;;;5029733;28;20768;-74
2023/05/08 14:17:07;;;;;;;5.50;2.50;;;20.00;89.70;;;;;;5030688;28;20509;-74
2023/05/08 14:19:34;;;;;;;0.70;0.70;;;20.10;89.70;;;;;;5030014;28;20465;-74
2023/05/08 14:22:02;;;;;;;0.97;0.97;;;20.10;88.80;;;;;;5030424;28;20828;-75
2023/05/08 14:24:29;;;;;;;0.40;0.40;;;20.20;88.80;;;;;;5029846;28;20480;-74
2023/05/08 14:26:55;;;;;;;0.80;0.80;;;20.10;87.30;;;;;;5030381;28;20494;-74
2023/05/08 14:29:22;;;;;;;0.90;0.90;;;20.10;87.90;;;;;;5030388;28;20922;-75
2023/05/08 14:31:49;;;;;;;0.70;0.70;;;20.10;87.40;;;;;;5030315;28;20481;-74
2023/05/08 14:34:16;;;;;;;0.77;0.77;;;20.00;86.70;;;;;;5030096;28;20557;-73
2023/05/08 14:36:42;;;;;;;0.80;0.80;;;20.10;86.90;;;;;;5030048;28;20942;-73
2023/05/08 14:39:10;;;;;;;1.17;1.17;;;20.10;85.90;;;;;;5030999;28;20476;-73
2023/05/08 14:41:38;;;;;;;0.97;0.97;;;20.10;86.40;;;;;;5039105;28;20956;-73
2023/05/08 14:44:05;;;;;;;0.80;0.80;;;20.20;86.70;;;;;;5050461;28;20480;-73
2023/05/08 14:46:32;;;;;;;0.63;0.63;;;20.30;84.20;;;;;;5050682;28;20460;-73
2023/05/08 14:48:58;;;;;;;0.70;0.70;;;20.20;83.20;;;;;;5050471;28;20538;-73
2023/05/08 14:51:25;;;;;;;0.90;0.90;;;20.20;82.70;;;;;;5050110;28;20488;-72
2023/05/08 14:53:52;;;;;;;0.97;0.97;;;20.20;83.00;;;;;;5051423;28;20809;-72
2023/05/08 14:56:23;;;;;;;0.63;0.63;;;20.30;83.60;;;;;;5050374;28;20487;-73
2023/05/08 14:58:49;;;;;;;0.20;0.20;;;20.20;81.40;;;;;;5054043;28;20476;-73
2023/05/08 15:01:16;;;;;;;0.40;0.40;;;20.30;81.40;;;;;;5053833;28;20795;-73
2023/05/08 15:03:46;;;;;;;0.80;0.60;;;20.30;81.80;;;;;;5053251;28;20453;-74
2023/05/08 15:06:12;;;;;;;0.87;0.87;;;20.40;81.10;;;;;;5053655;28;20582;-74
2023/05/08 15:08:39;;;;;;;0.80;0.60;;;20.40;80.30;;;;;;5054572;28;20664;-73
2023/05/08 15:11:06;;;;;;;0.67;0.67;;;20.40;80.20;;;;;;5053437;28;20975;-73
2023/05/08 15:13:34;;;;;;;0.67;0.67;;;20.50;80.50;;;;;;5053542;28;20471;-73
2023/05/08 15:16:01;;;;;;;0.40;0.40;;;20.60;80.50;;;;;;5053757;28;20541;-73
2023/05/08 15:18:28;;;;;;;0.70;0.70;;;20.60;78.00;;;;;;5053756;28;21049;-73
2023/05/08 15:20:55;;;;;;;0.37;0.37;;;20.60;78.40;;;;;;5053152;28;20953;-73
2023/05/08 15:23:21;;;;;;;0.80;0.80;;;20.50;77.20;;;;;;5053675;28;20460;-73
2023/05/08 15:25:48;;;;;;;0.50;0.50;;;20.50;77.50;;;;;;5053353;28;20495;-73
2023/05/08 15:28:15;;;;;;;1.23;0.77;;;20.60;79.00;;;;;;5053695;28;21001;-74
2023/05/08 15:30:45;;;;;;;1.23;1.13;;;20.60;77.70;;;;;;5053716;28;20467;-73
2023/05/08 15:33:12;;;;;;;0.67;0.67;;;20.80;79.40;;;;;;5054236;28;20480;-74
2023/05/08 15:35:38;;;;;;;0.53;0.53;;;20.80;77.00;;;;;;5053203;28;20510;-72
2023/05/08 15:38:06;;;;;;;0.80;0.80;;;20.90;77.40;;;;;;5053292;28;20468;-72
2023/05/08 15:40:33;;;;;;;1.30;0.73;;;20.80;76.90;;;;;;5047138;28;20517;-72
2023/05/08 15:43:00;;;;;;;0.70;0.70;;;20.80;77.40;;;;;;5053111;28;20456;-73
2023/05/08 15:45:27;;;;;;;0.40;0.40;;;20.80;77.30;;;;;;5052660;28;20492;-73
2023/05/08 15:47:55;;;;;;;0.60;0.60;;;20.80;76.20;;;;;;5053483;28;20464;-73
2023/05/08 15:50:22;;;;;;;0.50;0.50;;;20.70;77.40;;;;;;5052637;28;20960;-73
2023/05/08 15:52:49;;;;;;;0.40;0.40;;;20.70;76.60;;;;;;5052228;28;21093;-73
2023/05/08 15:55:16;;;;;;;0.50;0.50;;;20.80;77.10;;;;;;5052196;28;20488;-73
2023/05/08 15:57:43;;;;;;;0.70;0.70;;;20.80;75.10;;;;;;5052650;28;20460;-71
2023/05/08 16:00:11;;;;;;;0.90;0.80;;;20.70;75.60;;;;;;5052769;28;20483;-73
2023/05/08 16:02:37;;;;;;;0.40;0.40;;;20.70;75.50;;;;;;5052318;28;20975;-72
2023/05/08 16:05:06;;;;;;;2.43;0.83;;;20.80;75.00;;;;;;5051302;28;20499;-73
2023/05/08 16:07:33;;;;;;;0.53;0.53;;;20.60;74.10;;;;;;5052309;28;20472;-74
2023/05/08 16:09:59;;;;;;;0.47;0.47;;;20.50;73.70;;;;;;5052451;28;20814;-74
2023/05/08 16:12:26;;;;;;;0.60;0.60;;;20.40;73.70;;;;;;5052328;28;20830;-74
2023/05/08 16:14:53;;;;;;;0.40;0.40;;;20.30;74.00;;;;;;5051911;28;20519;-74
2023/05/08 16:17:20;;;;;;;0.43;0.43;;;20.30;73.70;;;;;;5052085;28;20831;-73
2023/05/08 16:19:46;;;;;;;0.77;0.77;;;20.30;74.20;;;;;;5051565;28;20468;-73
2023/05/08 16:22:14;;;;;;;0.97;0.60;;;20.30;73.80;;;;;;5051463;28;20936;-73
2023/05/08 16:24:41;;;;;;;0.87;0.87;;;20.40;74.40;;;;;;5051050;28;20480;-74
2023/05/08 16:27:08;;;;;;;2.43;1.03;;;20.40;73.50;;;;;;5051900;28;20460;-74
2023/05/08 16:29:35;;;;;;;0.77;0.77;;;20.40;72.90;;;;;;5051836;28;20463;-74
2023/05/08 16:32:02;;;;;;;2.00;1.90;;;20.30;72.60;;;;;;5051574;28;20859;-74
2023/05/08 16:34:29;;;;;;;0.63;0.50;;;20.30;72.70;;;;;;5050596;28;20488;-73
2023/05/08 16:36:57;;;;;;;0.67;0.67;;;20.20;71.50;;;;;;5051420;28;20492;-74
2023/05/08 16:39:25;;;;;;;0.70;0.70;;;20.10;71.60;;;;;;5049808;28;20542;-72
2023/05/08 16:41:52;;;;;;;0.40;0.40;;;20.00;72.70;;;;;;5047694;28;20925;-72
2023/05/08 16:44:18;;;;;;;0.50;0.50;;;20.10;72.30;;;;;;5050829;28;20487;-73
2023/05/08 16:46:45;;;;;;;0.47;0.47;;;20.10;71.70;;;;;;5051379;28;21026;-73
2023/05/08 16:49:12;;;;;;;0.53;0.53;;;20.10;71.90;;;;;;5051445;28;20464;-75
2023/05/08 16:51:38;;;;;;;0.63;0.63;;;20.10;71.10;;;;;;5050891;28;20471;-74
2023/05/08 16:54:05;;;;;;;0.63;0.63;;;20.10;72.20;;;;;;5050798;28;20827;-73
2023/05/08 16:56:33;;;;;;;0.43;0.43;;;20.10;71.90;;;;;;5051053;28;20464;-74